Data for 02/25/2015

Time Sea-Level Adjusted Pressure Absolute Pressure Temperature Relative Humidity Dew Point   
(mb) (inHg) (mb) (inHg) (C) (F) (%) (C) (F)
00:05 1017 30.03 846 24.98 1.7 35.1 66 -3.9 25
00:10 1017 30.03 846 24.98 1.7 35 68 -3.5 25.6
00:15 1017 30.03 846 24.98 1.5 34.6 72 -3 26.6
00:20 1017 30.03 846 24.98 1.2 34.2 75 -2.8 27
00:25 1017 30.03 846 24.98 1.1 34 76 -2.6 27.4
00:30 1017 30.03 846 24.98 1 33.8 77 -2.6 27.4
00:35 1017 30.03 846 24.98 1 33.8 77 -2.6 27.3
00:40 1017 30.03 846 24.98 1.1 33.9 76 -2.7 27.2
00:45 1017 30.03 846 24.98 1.1 33.9 77 -2.6 27.4
00:50 1017 30.03 846 24.98 1.1 33.9 76 -2.7 27.1
00:55 1017 30.03 846 24.98 1.2 34.1 76 -2.7 27.2
01:00 1017 30.03 846 24.98 1.2 34.1 75 -2.7 27.1
01:05 1017 30.03 846 24.98 1.2 34.2 75 -2.7 27.1
01:10 1017 30.03 846 24.98 1.2 34.1 75 -2.8 26.9
01:15 1017 30.03 846 24.98 1.2 34.2 73 -3 26.5
01:20 1017 30.03 846 24.98 1.2 34.2 75 -2.8 26.9
01:25 1017 30.03 846 24.98 1.2 34.1 63 -5.1 22.8
01:30 1017 30.03 846 24.98 1.8 35.2 72 -2.8 26.9
01:35 1017 30.03 846 24.98 1.5 34.7 68 -3.8 25.2
01:40 1017 30.03 846 24.98 1.7 35 65 -4.3 24.3
01:45 1017 30.03 846 24.98 1.8 35.2 66 -3.9 25
01:50 1017 30.03 846 24.98 1.8 35.3 67 -3.6 25.4
01:55 1017 30.03 846 24.98 1.8 35.3 63 -4.4 24.1
02:00 1017 30.03 846 24.98 2 35.5 64 -4.1 24.6
02:05 1017 30.03 846 24.98 1.9 35.4 63 -4.3 24.2
02:10 1017 30.03 846 24.98 1.9 35.4 65 -4 24.8
02:15 1017 30.03 846 24.98 1.7 35 66 -4.1 24.7
02:20 1017 30.03 846 24.98 1.7 35 65 -4.1 24.6
02:25 1017 30.03 846 24.98 1.6 34.9 66 -4.1 24.6
02:30 1017 30.03 846 24.98 1.6 34.9 65 -4.2 24.4
02:35 1017 30.03 846 24.98 1.8 35.2 65 -4.1 24.6
02:40 1017 30.03 846 24.98 1.8 35.2 63 -4.4 24.1
02:45 1017 30.03 847 25.01 1.9 35.4 63 -4.5 24
02:50 1017 30.03 847 25.01 2 35.6 62 -4.5 23.9
02:55 1017 30.03 847 25.01 2.1 35.7 63 -4.3 24.3
03:00 1017 30.03 847 25.01 2 35.7 62 -4.5 24
03:05 1017 30.03 847 25.01 2 35.6 62 -4.5 23.8
03:10 1017 30.03 847 25.01 1.9 35.5 62 -4.7 23.6
03:15 1017 30.03 847 25.01 2 35.5 61 -4.8 23.4
03:20 1017 30.03 847 25.01 1.9 35.5 60 -4.9 23.1
03:25 1017 30.03 847 25.01 1.8 35.3 62 -4.8 23.4
03:30 1018 30.06 847 25.01 1.7 35 62 -4.8 23.4
03:35 1018 30.06 847 25.01 1.7 35 62 -4.9 23.2
03:40 1018 30.06 847 25.01 1.6 34.9 63 -4.7 23.5
03:45 1018 30.06 847 25.01 1.7 35 63 -4.6 23.7
03:50 1018 30.06 847 25.01 1.6 34.8 63 -4.7 23.5
03:55 1018 30.06 847 25.01 1.6 34.9 63 -4.7 23.6
04:00 1018 30.06 847 25.01 1.6 34.9 63 -4.7 23.5
04:05 1018 30.06 847 25.01 1.7 35 64 -4.4 24
04:10 1018 30.06 847 25.01 1.5 34.8 64 -4.4 24
04:15 1018 30.06 847 25.01 1.5 34.7 65 -4.5 24
04:20 1018 30.06 847 25.01 1.5 34.7 64 -4.5 23.9
04:25 1018 30.06 847 25.01 1.5 34.7 65 -4.5 24
04:30 1018 30.06 847 25.01 1.4 34.5 65 -4.4 24.1
04:35 1018 30.06 847 25.01 1.3 34.4 66 -4.3 24.2
04:40 1018 30.06 847 25.01 1.2 34.2 65 -4.5 23.8
04:45 1018 30.06 847 25.01 1.2 34.2 64 -4.8 23.4
04:50 1018 30.06 847 25.01 1.2 34.2 65 -4.5 23.8
04:55 1018 30.06 847 25.01 1.2 34.1 64 -4.9 23.2
05:00 1018 30.06 848 25.04 1.2 34.1 64 -4.8 23.3
05:05 1018 30.06 848 25.04 1.1 33.9 64 -4.9 23.2
05:10 1019 30.09 848 25.04 1 33.7 65 -4.8 23.4
05:15 1019 30.09 848 25.04 0.8 33.5 66 -4.8 23.3
05:20 1019 30.09 848 25.04 0.7 33.3 67 -4.7 23.5
05:25 1019 30.09 848 25.04 0.5 32.9 67 -4.9 23.3
05:30 1019 30.09 848 25.04 0.4 32.8 66 -5.2 22.7
05:35 1019 30.09 848 25.04 0.5 32.9 66 -5.2 22.6
05:40 1019 30.09 848 25.04 0.6 33.2 64 -5.5 22.1
05:45 1019 30.09 848 25.04 0.7 33.2 64 -5.3 22.4
05:50 1019 30.09 848 25.04 0.6 33.1 63 -5.5 22
05:55 1019 30.09 848 25.04 0.5 33 64 -5.5 22.2
06:00 1019 30.09 848 25.04 0.4 32.8 64 -5.5 22
06:05 1019 30.09 848 25.04 0.4 32.7 64 -5.7 21.8
06:10 1019 30.09 849 25.07 0.4 32.8 63 -5.7 21.7
06:15 1019 30.09 849 25.07 0.4 32.8 64 -5.6 21.9
06:20 1019 30.09 849 25.07 0.4 32.6 64 -5.7 21.8
06:25 1020 30.12 849 25.07 0.4 32.7 65 -5.5 22.1
06:30 1020 30.12 849 25.07 0.3 32.6 65 -5.5 22.2
06:35 1020 30.12 849 25.07 0.3 32.6 65 -5.5 22.2
06:40 1020 30.12 849 25.07 0.3 32.6 66 -5.4 22.3
06:45 1020 30.12 849 25.07 0.3 32.5 66 -5.4 22.3
06:50 1020 30.12 849 25.07 0.3 32.5 66 -5.5 22.2
06:55 1020 30.12 849 25.07 0.2 32.4 66 -5.5 22.2
07:00 1020 30.12 849 25.07 0.2 32.4 66 -5.4 22.2
07:05 1020 30.12 849 25.07 0.2 32.3 67 -5.3 22.5
07:10 1020 30.12 850 25.1 0 32 69 -5 23
07:15 1020 30.12 850 25.1 -0.2 31.6 72 -4.7 23.5
07:20 1020 30.12 850 25.1 -0.5 31.1 74 -4.5 23.8
07:25 1020 30.12 850 25.1 -0.7 30.7 77 -4.3 24.2
07:30 1021 30.15 850 25.1 -0.9 30.4 78 -4.3 24.2
07:35 1021 30.15 850 25.1 -1 30.2 79 -4.2 24.5
07:40 1021 30.15 850 25.1 -1.1 30 83 -3.7 25.4
07:45 1021 30.15 850 25.1 -1.4 29.5 85 -3.6 25.5
07:50 1021 30.15 850 25.1 -1.6 29.2 85 -3.7 25.3
07:55 1021 30.15 850 25.1 -1.6 29 85 -3.8 25.1
08:00 1021 30.15 850 25.1 -1.7 28.9 84 -4 24.7
08:05 1021 30.15 850 25.1 -1.8 28.8 83 -4.3 24.3
08:10 1021 30.15 850 25.1 -1.8 28.8 82 -4.4 24
08:15 1021 30.15 850 25.1 -1.9 28.7 82 -4.5 24
08:20 1021 30.15 850 25.1 -1.8 28.7 83 -4.4 24.1
08:25 1021 30.15 851 25.13 -2 28.4 84 -4.3 24.2
08:30 1021 30.15 851 25.13 -2.1 28.3 85 -4.3 24.2
08:35 1022 30.18 851 25.13 -2.1 28.3 84 -4.4 24.1
08:40 1022 30.18 851 25.13 -2 28.3 83 -4.5 23.9
08:45 1022 30.18 851 25.13 -2 28.4 82 -4.6 23.7
08:50 1022 30.18 851 25.13 -1.9 28.6 82 -4.6 23.7
08:55 1022 30.18 851 25.13 -1.9 28.6 82 -4.6 23.7
09:00 1022 30.18 851 25.13 -1.9 28.5 82 -4.7 23.6
09:05 1022 30.18 851 25.13 -1.9 28.6 82 -4.6 23.7
09:10 1022 30.18 851 25.13 -1.8 28.7 81 -4.7 23.6
09:15 1022 30.18 851 25.13 -1.8 28.7 81 -4.6 23.6
09:20 1022 30.18 851 25.13 -1.8 28.8 80 -4.8 23.4
09:25 1022 30.18 851 25.13 -1.7 28.9 80 -4.8 23.4
09:30 1022 30.18 851 25.13 -1.7 28.9 79 -4.9 23.2
09:35 1022 30.18 851 25.13 -1.8 28.8 79 -4.9 23.3
09:40 1022 30.18 851 25.13 -1.7 28.9 79 -4.9 23.1
09:45 1022 30.18 851 25.13 -1.6 29 80 -4.7 23.5
09:50 1022 30.18 851 25.13 -1.6 29.1 79 -4.8 23.4
09:55 1022 30.18 851 25.13 -1.5 29.3 78 -4.8 23.3
10:00 1022 30.18 851 25.13 -1.3 29.7 77 -4.9 23.2
10:05 1022 30.18 851 25.13 -1.2 29.8 76 -5 23
10:10 1022 30.18 851 25.13 -1.2 29.8 75 -5 22.9
10:15 1022 30.18 851 25.13 -1.1 30 75 -5 22.9
10:20 1022 30.18 851 25.13 -1.1 30.1 74 -5.1 22.8
10:25 1022 30.18 851 25.13 -1 30.2 74 -5 23
10:30 1022 30.18 852 25.16 -0.9 30.4 72 -5.3 22.4
10:35 1022 30.18 852 25.16 -1 30.3 73 -5.3 22.5
10:40 1023 30.21 852 25.16 -1 30.2 72 -5.4 22.3
10:45 1023 30.21 852 25.16 -0.8 30.5 72 -5.2 22.6
10:50 1023 30.21 852 25.16 -0.7 30.8 71 -5.3 22.5
10:55 1023 30.21 852 25.16 -0.9 30.5 72 -5.4 22.3
11:00 1023 30.21 852 25.16 -1 30.2 72 -5.5 22.1
11:05 1023 30.21 852 25.16 -1 30.1 72 -5.4 22.3
11:10 1023 30.21 852 25.16 -1.1 30.1 73 -5.3 22.5
11:15 1023 30.21 852 25.16 -0.9 30.3 72 -5.4 22.3
11:20 1023 30.21 852 25.16 -0.9 30.3 72 -5.4 22.2
11:25 1023 30.21 852 25.16 -0.9 30.4 71 -5.4 22.2
11:30 1023 30.21 852 25.16 -1 30.1 72 -5.5 22.1
11:35 1023 30.21 852 25.16 -1.1 30.1 71 -5.6 21.9
11:40 1023 30.21 852 25.16 -1 30.2 72 -5.4 22.4
11:45 1023 30.21 852 25.16 -1.2 29.9 75 -5.1 22.9
11:50 1023 30.21 852 25.16 -1.2 29.8 78 -4.6 23.8
11:55 1023 30.21 852 25.16 -1.6 29.1 83 -4.1 24.6
12:00 1023 30.21 852 25.16 -1.6 29.1 81 -4.5 24
12:05 1023 30.21 852 25.16 -1 30.3 75 -4.9 23.1
12:10 1023 30.21 852 25.16 -0.6 30.8 76 -4.4 24.1
12:15 1023 30.21 852 25.16 -0.7 30.7 80 -3.8 25.2
12:20 1023 30.21 852 25.16 -1.4 29.6 85 -3.6 25.6
12:25 1023 30.21 853 25.19 -1.4 29.4 83 -3.9 24.9
12:30 1023 30.21 852 25.16 -0.9 30.4 79 -4 24.7
12:35 1023 30.21 852 25.16 -0.3 31.5 77 -3.8 25.2
12:40 1023 30.21 852 25.16 0.2 32.3 74 -4 24.8
12:45 1023 30.21 852 25.16 0.2 32.4 73 -4 24.8
12:50 1023 30.21 852 25.16 0.1 32.1 72 -4.3 24.2
12:55 1023 30.21 852 25.16 0.1 32.2 72 -4.3 24.3
13:00 1023 30.21 852 25.16 0.3 32.5 60 -6.7 20
13:05 1023 30.21 852 25.16 0.8 33.4 56 -7 19.5
13:10 1023 30.21 852 25.16 1 33.8 54 -7.2 19
13:15 1023 30.21 852 25.16 0.8 33.5 54 -7.5 18.4
13:20 1023 30.21 852 25.16 1.1 34 51 -7.8 17.9
13:25 1023 30.21 852 25.16 0.4 32.7 53 -8.2 17.3
13:30 1023 30.21 852 25.16 1.4 34.5 49 -8.1 17.5
13:35 1023 30.21 852 25.16 1.6 34.9 48 -8.3 17
13:40 1023 30.21 852 25.16 1.3 34.3 47 -8.9 16
13:45 1023 30.21 852 25.16 1.3 34.4 40 -11 12.3
13:50 1023 30.21 852 25.16 1 33.7 49 -8.7 16.3
13:55 1023 30.21 852 25.16 0.7 33.3 49 -8.9 15.9
14:00 1023 30.21 852 25.16 0.5 32.9 48 -9.2 15.4
14:05 1023 30.21 852 25.16 0.7 33.3 47 -9.3 15.3
14:10 1023 30.21 852 25.16 0.9 33.5 47 -9.2 15.5
14:15 1023 30.21 852 25.16 0.9 33.6 46 -9.5 14.9
14:20 1023 30.21 852 25.16 1 33.8 43 -10.2 13.6
14:25 1023 30.21 852 25.16 0.9 33.7 45 -9.7 14.5
14:30 1023 30.21 852 25.16 1 33.7 43 -10.4 13.4
14:35 1023 30.21 852 25.16 1.4 34.5 42 -10.1 13.8
14:40 1023 30.21 852 25.16 1.4 34.5 44 -9.6 14.7
14:45 1023 30.21 852 25.16 1.2 34.2 44 -9.7 14.5
14:50 1023 30.21 852 25.16 1.1 33.9 43 -10.2 13.7
14:55 1023 30.21 852 25.16 1.3 34.3 43 -9.9 14.1
15:00 1023 30.21 852 25.16 1.3 34.4 42 -10.1 13.8
15:05 1023 30.21 852 25.16 1.7 35 42 -9.9 14.2
15:10 1023 30.21 852 25.16 1.7 35 42 -10 14.1
15:15 1023 30.21 852 25.16 1.4 34.5 43 -9.8 14.4
15:20 1023 30.21 852 25.16 1.8 35.2 42 -9.9 14.1
15:25 1023 30.21 852 25.16 1.4 34.6 41 -10.4 13.2
15:30 1023 30.21 852 25.16 1.7 35 41 -10.1 13.8
15:35 1023 30.21 852 25.16 1.6 34.9 43 -9.7 14.5
15:40 1023 30.21 852 25.16 1.3 34.3 44 -9.8 14.4
15:45 1023 30.21 852 25.16 1.2 34.1 43 -10 14
15:50 1023 30.21 852 25.16 1.3 34.3 41 -10.6 12.8
15:55 1023 30.21 852 25.16 1.3 34.3 41 -10.6 12.9
16:00 1023 30.21 852 25.16 1.6 34.9 40 -10.7 12.8
16:05 1023 30.21 852 25.16 1.5 34.6 40 -10.7 12.8
16:10 1023 30.21 852 25.16 1.1 34 43 -10.1 13.9
16:15 1023 30.21 852 25.16 1.3 34.3 42 -10.3 13.4
16:20 1023 30.21 852 25.16 1 33.8 40 -11.2 11.8
16:25 1023 30.21 852 25.16 1 33.8 43 -10.3 13.5
16:30 1023 30.21 852 25.16 0.9 33.6 43 -10.3 13.5
16:35 1023 30.21 852 25.16 0.7 33.2 43 -10.5 13.2
16:40 1023 30.21 852 25.16 0.6 33 46 -9.9 14.2
16:45 1023 30.21 852 25.16 0.4 32.7 45 -10.3 13.5
16:50 1023 30.21 852 25.16 0.2 32.3 46 -10.2 13.6
16:55 1023 30.21 852 25.16 0.3 32.5 45 -10.2 13.6
17:00 1023 30.21 852 25.16 0.7 33.3 44 -10.2 13.6
17:05 1023 30.21 852 25.16 0.4 32.7 48 -9.4 15
17:10 1023 30.21 852 25.16 -0.5 31.1 54 -8.6 16.5
17:15 1023 30.21 852 25.16 -1.2 29.9 57 -8.6 16.4
17:20 1023 30.21 852 25.16 -1.5 29.4 57 -8.8 16.2
17:25 1023 30.21 852 25.16 -1.8 28.8 59 -8.9 16.1
17:30 1023 30.21 852 25.16 -1.8 28.8 59 -8.7 16.3
17:35 1023 30.21 852 25.16 -1.8 28.7 60 -8.6 16.5
17:40 1023 30.21 852 25.16 -1.9 28.6 61 -8.3 17
17:45 1023 30.21 852 25.16 -2.1 28.3 63 -8.2 17.2
17:50 1023 30.21 852 25.16 -2.4 27.6 65 -8.1 17.5
17:55 1023 30.21 852 25.16 -2.5 27.5 66 -8.1 17.5
18:00 1023 30.21 852 25.16 -2.5 27.4 66 -8 17.6
18:05 1023 30.21 852 25.16 -2.4 27.6 65 -8.1 17.4
18:10 1023 30.21 852 25.16 -2.6 27.3 66 -8.1 17.5
18:15 1023 30.21 852 25.16 -2.7 27.1 66 -8.2 17.2
18:20 1023 30.21 852 25.16 -2.8 26.9 69 -7.7 18.2
18:25 1023 30.21 852 25.16 -3 26.6 73 -7.2 19.1
18:30 1023 30.21 852 25.16 -3 26.5 74 -7 19.3
18:35 1023 30.21 852 25.16 -3 26.5 74 -7.1 19.2
18:40 1023 30.21 852 25.16 -3.1 26.5 74 -7 19.3
18:45 1023 30.21 852 25.16 -3.2 26.3 74 -7.2 19
18:50 1023 30.21 852 25.16 -3.2 26.2 73 -7.5 18.6
18:55 1023 30.21 852 25.16 -3.2 26.2 73 -7.4 18.7
19:00 1023 30.21 852 25.16 -3.3 26.1 73 -7.5 18.5
19:05 1023 30.21 852 25.16 -3.2 26.2 72 -7.7 18.2
19:10 1023 30.21 852 25.16 -3.3 26.1 72 -7.6 18.4
19:15 1023 30.21 852 25.16 -3.3 26.1 73 -7.5 18.6
19:20 1023 30.21 852 25.16 -3.4 25.9 73 -7.5 18.4
19:25 1023 30.21 852 25.16 -3.5 25.7 73 -7.6 18.3
19:30 1023 30.21 852 25.16 -3.5 25.7 72 -7.9 17.8
19:35 1023 30.21 852 25.16 -3.6 25.5 72 -7.9 17.7
19:40 1023 30.21 852 25.16 -3.7 25.4 74 -7.6 18.2
19:45 1023 30.21 852 25.16 -3.8 25.1 76 -7.5 18.5
19:50 1023 30.21 852 25.16 -4 24.9 76 -7.5 18.5
19:55 1023 30.21 852 25.16 -4.1 24.6 79 -7.3 18.9
20:00 1022 30.18 852 25.16 -4.2 24.4 79 -7.3 18.9
20:05 1022 30.18 852 25.16 -4.3 24.2 80 -7.3 18.9
20:10 1022 30.18 852 25.16 -4.4 24 80 -7.3 18.8
20:15 1022 30.18 851 25.13 -4.4 24.1 80 -7.4 18.8
20:20 1022 30.18 851 25.13 -4.5 23.9 81 -7.3 18.9
20:25 1022 30.18 851 25.13 -4.7 23.5 80 -7.7 18.1
20:30 1022 30.18 851 25.13 -5.2 22.6 80 -8.2 17.3
20:35 1022 30.18 851 25.13 -5.5 22.2 79 -8.5 16.6
20:40 1022 30.18 851 25.13 -5.7 21.8 79 -8.8 16.2
20:45 1022 30.18 851 25.13 -5.8 21.5 76 -9.5 15
20:50 1022 30.18 851 25.13 -6 21.1 75 -9.8 14.4
20:55 1022 30.18 851 25.13 -6.2 20.9 74 -10.1 13.8
21:00 1022 30.18 851 25.13 -6.3 20.7 73 -10.4 13.2
21:05 1022 30.18 851 25.13 -6.3 20.6 73 -10.4 13.2
21:10 1022 30.18 852 25.16 -6.7 20 75 -10.4 13.2
21:15 1022 30.18 852 25.16 -6.9 19.5 76 -10.4 13.3
21:20 1022 30.18 852 25.16 -7.1 19.2 79 -10.1 13.8
21:25 1022 30.18 852 25.16 -7.3 18.9 81 -10.1 13.8
21:30 1022 30.18 851 25.13 -7.4 18.6 81 -10.1 13.8
21:35 1022 30.18 851 25.13 -7.6 18.4 82 -10.2 13.7
21:40 1022 30.18 851 25.13 -7.8 18.1 80 -10.6 13
21:45 1022 30.18 851 25.13 -7.8 17.9 80 -10.7 12.7
21:50 1022 30.18 851 25.13 -7.9 17.7 79 -10.9 12.4
21:55 1022 30.18 851 25.13 -8 17.7 80 -10.9 12.4
22:00 1022 30.18 852 25.16 -7.9 17.7 79 -11 12.2
22:05 1022 30.18 852 25.16 -7.9 17.7 77 -11.2 11.8
22:10 1022 30.18 852 25.16 -8 17.6 77 -11.4 11.5
22:15 1022 30.18 852 25.16 -8 17.7 76 -11.5 11.2
22:20 1022 30.18 852 25.16 -7.9 17.7 74 -11.7 10.9
22:25 1023 30.21 852 25.16 -7.9 17.8 73 -11.9 10.6
22:30 1023 30.21 852 25.16 -7.9 17.8 73 -12 10.5
22:35 1023 30.21 852 25.16 -8 17.6 74 -11.9 10.6
22:40 1023 30.21 852 25.16 -8.1 17.5 75 -11.8 10.7
22:45 1023 30.21 852 25.16 -8.2 17.2 76 -11.7 11
22:50 1023 30.21 852 25.16 -8.4 16.9 77 -11.7 10.9
22:55 1023 30.21 852 25.16 -8.6 16.5 78 -11.8 10.8
23:00 1023 30.21 852 25.16 -8.8 16.2 79 -11.9 10.6
23:05 1023 30.21 852 25.16 -8.8 16.2 80 -11.7 11
23:10 1023 30.21 852 25.16 -8.9 16 80 -11.7 11
23:15 1023 30.21 852 25.16 -8.9 15.9 81 -11.7 10.9
23:20 1023 30.21 852 25.16 -9 15.8 80 -11.8 10.7
23:25 1023 30.21 852 25.16 -9 15.7 80 -11.9 10.6
23:30 1023 30.21 852 25.16 -9.1 15.6 78 -12.2 10
23:35 1023 30.21 852 25.16 -9.2 15.5 78 -12.3 9.8
23:40 1023 30.21 852 25.16 -9.1 15.6 76 -12.6 9.2
23:45 1023 30.21 852 25.16 -9.1 15.7 74 -12.8 8.9
23:50 1023 30.21 852 25.16 -9 15.7 74 -12.9 8.8
23:55 1023 30.21 852 25.16 -9 15.7 74 -12.8 8.9
24:00 1022 30.18 852 25.16 -9.1 15.7 74 -12.9 8.8